createdAt,value
2022-08-07T00:00:18.707Z,19.91
2022-08-07T00:01:44.439Z,19.84
2022-08-07T00:02:45.963Z,19.90
2022-08-07T00:03:49.201Z,19.69
2022-08-07T00:04:52.032Z,19.66
2022-08-07T00:05:56.219Z,19.83
2022-08-07T00:07:01.462Z,19.65
2022-08-07T00:08:08.577Z,19.76
2022-08-07T00:09:21.227Z,19.48
2022-08-07T00:10:26.137Z,19.52
2022-08-07T00:11:33.109Z,19.60
2022-08-07T00:12:36.247Z,19.64
2022-08-07T00:13:59.390Z,19.64
2022-08-07T00:15:02.439Z,19.58
2022-08-07T00:16:07.058Z,19.62
2022-08-07T00:17:10.627Z,19.57
2022-08-07T00:18:19.231Z,19.63
2022-08-07T00:19:25.945Z,19.62
2022-08-07T00:20:29.879Z,19.64
2022-08-07T00:21:56.329Z,19.68
2022-08-07T00:23:00.209Z,19.61
2022-08-07T00:24:03.076Z,19.72
2022-08-07T00:25:16.486Z,19.60
2022-08-07T00:26:58.446Z,19.55
2022-08-07T00:27:52.515Z,19.71
2022-08-07T00:29:00.659Z,19.86
2022-08-07T00:30:06.220Z,19.93
2022-08-07T00:31:37.867Z,19.87
2022-08-07T00:32:44.400Z,19.88
2022-08-07T00:33:48.247Z,19.87
2022-08-07T00:34:51.121Z,19.93
2022-08-07T00:35:58.730Z,19.88
2022-08-07T00:37:05.046Z,19.91
2022-08-07T00:38:08.527Z,19.91
2022-08-07T00:39:16.541Z,19.88
2022-08-07T00:40:39.028Z,19.91
2022-08-07T00:41:53.655Z,19.89
2022-08-07T00:43:09.953Z,19.98
2022-08-07T00:44:15.143Z,19.98
2022-08-07T00:45:18.279Z,20.01
2022-08-07T00:46:21.108Z,20.06
2022-08-07T00:48:08.158Z,19.98
2022-08-07T00:48:49.909Z,19.96
2022-08-07T00:50:21.168Z,19.91
2022-08-07T00:51:17.610Z,20.10
2022-08-07T00:52:20.468Z,20.22
2022-08-07T00:53:23.540Z,20.18
2022-08-07T00:54:26.445Z,20.03
2022-08-07T00:56:02.600Z,20.08
2022-08-07T00:56:53.323Z,20.09
2022-08-07T00:57:56.890Z,20.22
2022-08-07T00:59:00.718Z,20.24
2022-08-07T01:00:08.347Z,20.23
2022-08-07T01:01:11.498Z,20.22
2022-08-07T01:02:28.099Z,20.25
2022-08-07T01:03:56.828Z,20.28
2022-08-07T01:04:58.350Z,20.28
2022-08-07T01:06:03.557Z,20.36
2022-08-07T01:07:06.639Z,20.34
2022-08-07T01:08:11.436Z,20.34
2022-08-07T01:10:06.803Z,20.33
2022-08-07T01:10:39.544Z,20.36
2022-08-07T01:12:09.622Z,20.27
2022-08-07T01:13:16.416Z,20.22
2022-08-07T01:14:28.256Z,20.08
2022-08-07T01:16:01.306Z,20.01
2022-08-07T01:16:58.649Z,20.16
2022-08-07T01:18:02.041Z,20.16
2022-08-07T01:19:14.837Z,20.34
2022-08-07T01:20:33.526Z,20.08
2022-08-07T01:21:36.952Z,20.07
2022-08-07T01:22:46.833Z,20.29
2022-08-07T01:24:04.274Z,20.10
2022-08-07T01:25:40.058Z,20.09
2022-08-07T01:26:33.915Z,20.22
2022-08-07T01:27:37.454Z,20.26
2022-08-07T01:28:54.231Z,20.21
2022-08-07T01:29:57.478Z,20.06
2022-08-07T01:31:02.897Z,20.06
2022-08-07T01:32:12.282Z,20.06
2022-08-07T01:33:17.429Z,20.20
2022-08-07T01:34:30.710Z,20.25
2022-08-07T01:35:52.684Z,20.33
2022-08-07T01:36:58.017Z,20.32
2022-08-07T01:38:01.538Z,20.33
2022-08-07T01:39:09.997Z,20.45
2022-08-07T01:40:15.115Z,20.50
2022-08-07T01:41:26.220Z,20.60
2022-08-07T01:42:38.669Z,20.56
2022-08-07T01:43:43.764Z,20.55
2022-08-07T01:44:48.053Z,20.49
2022-08-07T01:45:54.378Z,20.46
2022-08-07T01:47:01.212Z,20.48
2022-08-07T01:48:30.753Z,20.43
2022-08-07T01:49:33.934Z,20.54
2022-08-07T01:50:42.899Z,20.52
2022-08-07T01:52:01.911Z,20.45
2022-08-07T01:53:09.695Z,20.40
2022-08-07T01:54:37.058Z,20.42
2022-08-07T01:55:47.712Z,20.28
2022-08-07T01:56:57.028Z,20.44
2022-08-07T01:58:06.356Z,20.57
2022-08-07T01:59:35.484Z,20.52
2022-08-07T02:00:49.136Z,20.46
2022-08-07T02:02:07.449Z,20.36
2022-08-07T02:03:21.353Z,20.34
2022-08-07T02:04:56.136Z,20.49
2022-08-07T02:06:30.808Z,20.56
2022-08-07T02:07:35.742Z,20.44
2022-08-07T02:08:50.510Z,20.40
2022-08-07T02:09:59.229Z,20.45
2022-08-07T02:11:04.950Z,20.50
2022-08-07T02:12:20.203Z,20.48
2022-08-07T02:13:56.533Z,20.44
2022-08-07T02:14:58.834Z,20.37
2022-08-07T02:16:07.467Z,20.34
2022-08-07T02:17:16.540Z,20.49
2022-08-07T02:18:36.783Z,20.41
2022-08-07T02:20:04.156Z,20.58
2022-08-07T02:21:16.009Z,20.60
2022-08-07T02:22:20.585Z,20.60
2022-08-07T02:23:35.729Z,20.67
2022-08-07T02:24:44.537Z,20.66
2022-08-07T02:26:26.624Z,20.63
2022-08-07T02:27:14.554Z,20.40
2022-08-07T02:28:24.415Z,20.48
2022-08-07T02:29:29.530Z,20.58
2022-08-07T02:30:35.729Z,20.59
2022-08-07T02:31:39.997Z,20.39
2022-08-07T02:33:03.962Z,20.38
2022-08-07T02:34:11.572Z,20.37
2022-08-07T02:36:30.525Z,20.54
2022-08-07T02:36:45.961Z,20.42
2022-08-07T02:37:50.691Z,20.36
2022-08-07T02:38:56.787Z,20.37
2022-08-07T02:40:29.915Z,20.39
2022-08-07T02:41:26.228Z,20.38
2022-08-07T02:42:40.748Z,20.54
2022-08-07T02:43:48.924Z,20.56
2022-08-07T02:44:53.772Z,20.56
2022-08-07T02:46:04.717Z,20.60
2022-08-07T02:47:08.743Z,20.49
2022-08-07T02:48:23.156Z,20.58
2022-08-07T02:49:28.743Z,20.57
2022-08-07T02:50:53.141Z,20.62
2022-08-07T02:51:59.200Z,20.44
2022-08-07T02:53:07.257Z,20.44
2022-08-07T02:54:15.527Z,20.33
2022-08-07T02:56:03.291Z,20.45
2022-08-07T02:56:56.569Z,20.55
2022-08-07T02:58:06.774Z,20.52
2022-08-07T02:59:18.589Z,20.44
2022-08-07T03:00:30.198Z,20.35
2022-08-07T03:01:35.947Z,20.45
2022-08-07T03:02:54.963Z,20.38
2022-08-07T03:03:58.835Z,20.34
2022-08-07T03:05:06.972Z,20.47
2022-08-07T03:06:16.423Z,20.45
2022-08-07T03:08:05.239Z,20.49
2022-08-07T03:08:54.643Z,20.28
2022-08-07T03:09:57.351Z,20.38
2022-08-07T03:11:00.450Z,20.42
2022-08-07T03:12:08.097Z,20.26
2022-08-07T03:13:24.703Z,20.30
2022-08-07T03:14:29.901Z,20.29
2022-08-07T03:15:56.775Z,20.27
2022-08-07T03:16:57.309Z,20.18
2022-08-07T03:18:01.108Z,20.31
2022-08-07T03:19:04.940Z,20.10
2022-08-07T03:20:08.463Z,20.07
2022-08-07T03:21:12.126Z,20.18
2022-08-07T03:22:24.321Z,20.25
2022-08-07T03:24:18.302Z,20.17
2022-08-07T03:24:57.412Z,20.25
2022-08-07T03:26:02.121Z,20.22
2022-08-07T03:27:09.094Z,20.23
2022-08-07T03:28:37.546Z,20.17
2022-08-07T03:29:49.582Z,20.07
2022-08-07T03:31:14.576Z,19.96
2022-08-07T03:32:21.541Z,19.88
2022-08-07T03:33:32.263Z,19.92
2022-08-07T03:34:47.206Z,19.93
2022-08-07T03:36:03.925Z,20.02
2022-08-07T03:37:27.501Z,20.00
2022-08-07T03:38:33.159Z,20.08
2022-08-07T03:39:59.922Z,20.03
2022-08-07T03:41:05.727Z,20.07
2022-08-07T03:42:14.557Z,19.92
2022-08-07T03:43:17.404Z,19.99
2022-08-07T03:44:21.797Z,20.04
2022-08-07T03:45:39.814Z,20.08
2022-08-07T03:47:14.242Z,20.14
2022-08-07T03:48:11.602Z,20.07
2022-08-07T03:49:14.633Z,20.00
2022-08-07T03:50:23.028Z,20.09
2022-08-07T03:51:30.689Z,20.08
2022-08-07T03:52:35.515Z,20.17
2022-08-07T03:54:05.666Z,20.20
2022-08-07T03:55:06.503Z,20.23
2022-08-07T03:56:13.725Z,20.12
2022-08-07T03:58:33.099Z,20.07
2022-08-07T03:59:09.242Z,20.13
2022-08-07T04:00:05.056Z,20.07
2022-08-07T04:01:14.475Z,20.06
2022-08-07T04:02:17.428Z,19.96
2022-08-07T04:03:22.128Z,20.06
2022-08-07T04:04:25.212Z,20.12
2022-08-07T04:05:40.375Z,20.00
2022-08-07T04:06:44.497Z,20.07
2022-08-07T04:07:47.960Z,20.15
2022-08-07T04:08:52.606Z,20.14
2022-08-07T04:09:55.703Z,20.18
2022-08-07T04:12:23.561Z,20.18
2022-08-07T04:12:27.614Z,20.19
2022-08-07T04:14:33.172Z,20.26
2022-08-07T04:14:59.399Z,20.29
2022-08-07T04:16:04.802Z,20.22
2022-08-07T04:17:19.993Z,20.23
2022-08-07T04:18:59.891Z,20.22
2022-08-07T04:19:52.939Z,20.25
2022-08-07T04:20:57.790Z,20.46
2022-08-07T04:22:07.859Z,20.46
2022-08-07T04:23:19.522Z,20.53
2022-08-07T04:24:30.505Z,20.50
2022-08-07T04:25:44.643Z,20.48
2022-08-07T04:26:50.859Z,20.37
2022-08-07T04:28:00.401Z,20.39
2022-08-07T04:29:04.270Z,20.57
2022-08-07T04:30:11.869Z,20.59
2022-08-07T04:31:38.667Z,20.67
2022-08-07T04:32:48.433Z,20.61
2022-08-07T04:34:02.058Z,20.32
2022-08-07T04:35:07.049Z,20.06
2022-08-07T04:36:10.266Z,20.11
2022-08-07T04:37:15.375Z,20.27
2022-08-07T04:38:25.727Z,19.90
2022-08-07T04:39:35.834Z,20.04
2022-08-07T04:40:51.307Z,20.12
2022-08-07T04:41:54.415Z,20.18
2022-08-07T04:43:01.607Z,19.95
2022-08-07T04:44:12.865Z,19.93
2022-08-07T04:45:57.173Z,20.02
2022-08-07T04:47:04.742Z,19.75
2022-08-07T04:48:18.670Z,19.67
2022-08-07T04:49:24.649Z,19.76
2022-08-07T04:50:56.934Z,19.87
2022-08-07T04:52:36.010Z,19.94
2022-08-07T04:54:15.310Z,20.05
2022-08-07T04:58:15.667Z,20.01
2022-08-07T04:58:24.504Z,19.70
2022-08-07T04:59:17.218Z,19.84
2022-08-07T05:00:31.717Z,19.84
2022-08-07T05:01:50.605Z,19.87
2022-08-07T05:04:00.114Z,19.90
2022-08-07T05:05:53.291Z,19.64
2022-08-07T05:06:51.664Z,19.78
2022-08-07T05:08:59.570Z,19.96
2022-08-07T05:10:01.025Z,20.02
2022-08-07T05:11:19.331Z,20.04
2022-08-07T05:12:58.585Z,20.07
2022-08-07T05:14:54.549Z,20.14
2022-08-07T05:15:44.151Z,20.10
2022-08-07T05:16:52.690Z,20.09
2022-08-07T05:18:00.525Z,20.04
2022-08-07T05:19:12.601Z,20.16
2022-08-07T05:20:18.970Z,20.18
2022-08-07T05:21:58.970Z,20.19
2022-08-07T05:22:51.730Z,20.32
2022-08-07T05:24:00.422Z,20.25
2022-08-07T05:25:03.292Z,20.22
2022-08-07T05:26:23.762Z,20.26
2022-08-07T05:28:02.574Z,20.22
2022-08-07T05:28:56.423Z,20.22
2022-08-07T05:30:00.738Z,20.40
2022-08-07T05:31:04.795Z,20.42
2022-08-07T05:32:08.805Z,20.48
2022-08-07T05:33:15.392Z,20.54
2022-08-07T05:34:26.411Z,20.56
2022-08-07T05:35:42.248Z,20.56
2022-08-07T05:36:49.326Z,20.84
2022-08-07T05:38:08.893Z,20.65
2022-08-07T05:40:05.547Z,20.63
2022-08-07T05:40:50.610Z,20.80
2022-08-07T05:42:01.664Z,20.98
2022-08-07T05:43:10.628Z,20.88
2022-08-07T05:44:17.830Z,20.98
2022-08-07T05:45:46.477Z,20.95
2022-08-07T05:46:51.587Z,21.13
2022-08-07T05:48:02.441Z,21.26
2022-08-07T05:49:12.207Z,21.10
2022-08-07T05:50:16.727Z,21.26
2022-08-07T05:51:20.871Z,21.30
2022-08-07T05:52:29.857Z,21.29
2022-08-07T05:54:12.565Z,21.31
2022-08-07T05:54:58.768Z,21.38
2022-08-07T05:56:12.502Z,21.39
2022-08-07T05:57:17.110Z,21.30
2022-08-07T05:58:35.924Z,21.28
2022-08-07T05:59:57.881Z,21.28
2022-08-07T06:01:05.012Z,21.31
2022-08-07T06:02:15.331Z,21.14
2022-08-07T06:03:24.220Z,21.23
2022-08-07T06:04:30.310Z,21.25
2022-08-07T06:05:34.693Z,21.15
2022-08-07T06:06:38.305Z,21.26
2022-08-07T06:08:13.790Z,21.20
2022-08-07T06:09:17.027Z,21.25
2022-08-07T06:10:20.450Z,21.19
2022-08-07T06:11:23.570Z,21.31
2022-08-07T06:12:27.968Z,21.26
2022-08-07T06:14:11.676Z,21.25
2022-08-07T06:15:05.295Z,21.37
2022-08-07T06:16:10.169Z,21.31
2022-08-07T06:17:17.443Z,21.23
2022-08-07T06:18:21.708Z,21.23
2022-08-07T06:19:48.014Z,21.25
2022-08-07T06:20:50.773Z,21.31
2022-08-07T06:22:22.792Z,21.25
2022-08-07T06:24:38.269Z,21.43
2022-08-07T06:24:58.200Z,21.32
2022-08-07T06:26:05.161Z,21.38
2022-08-07T06:27:10.061Z,21.55
2022-08-07T06:28:14.082Z,21.67
2022-08-07T06:29:17.677Z,21.68
2022-08-07T06:30:32.120Z,21.77
2022-08-07T06:31:49.817Z,21.67
2022-08-07T06:32:53.319Z,21.78
2022-08-07T06:33:56.151Z,21.78
2022-08-07T06:35:01.036Z,21.78
2022-08-07T06:36:11.940Z,21.62
2022-08-07T06:37:17.009Z,21.60
2022-08-07T06:38:20.863Z,21.84
2022-08-07T06:40:16.591Z,21.66
2022-08-07T06:40:54.566Z,21.81
2022-08-07T06:42:05.210Z,21.85
2022-08-07T06:43:21.002Z,21.66
2022-08-07T06:44:33.888Z,21.69
2022-08-07T06:45:38.051Z,21.74
2022-08-07T06:46:41.242Z,21.87
2022-08-07T06:47:56.985Z,21.86
2022-08-07T06:49:04.486Z,21.93
2022-08-07T06:50:08.297Z,21.86
2022-08-07T06:51:31.334Z,21.89
2022-08-07T06:52:38.996Z,21.93
2022-08-07T06:55:29.403Z,21.79
2022-08-07T06:55:53.353Z,21.89
2022-08-07T06:56:56.428Z,21.90
2022-08-07T06:58:09.537Z,21.88
2022-08-07T07:00:13.861Z,21.92
2022-08-07T07:00:45.700Z,22.05
2022-08-07T07:01:50.818Z,22.04
2022-08-07T07:03:00.845Z,22.13
2022-08-07T07:04:28.546Z,22.12
2022-08-07T07:06:02.598Z,22.12
2022-08-07T07:07:00.374Z,22.35
2022-08-07T07:08:06.659Z,22.09
2022-08-07T07:09:36.397Z,22.30
2022-08-07T07:10:39.156Z,22.21
2022-08-07T07:12:16.692Z,22.34
2022-08-07T07:13:56.031Z,22.41
2022-08-07T07:15:23.980Z,22.48
2022-08-07T07:16:39.080Z,22.48
2022-08-07T07:18:09.462Z,22.40
2022-08-07T07:19:57.032Z,22.59
2022-08-07T07:20:45.595Z,22.55
2022-08-07T07:22:05.111Z,22.43
2022-08-07T07:24:09.211Z,22.48
2022-08-07T07:24:38.620Z,22.34
2022-08-07T07:26:33.836Z,22.29
2022-08-07T07:27:15.766Z,22.07
2022-08-07T07:28:42.249Z,22.08
2022-08-07T07:30:09.316Z,22.04
2022-08-07T07:31:44.672Z,22.17
2022-08-07T07:32:50.853Z,22.08
2022-08-07T07:33:57.908Z,22.17
2022-08-07T07:35:03.867Z,22.19
2022-08-07T07:36:13.564Z,22.17
2022-08-07T07:37:45.520Z,22.34
2022-08-07T07:38:46.225Z,22.32
2022-08-07T07:39:55.527Z,22.46
2022-08-07T07:41:02.638Z,22.53
2022-08-07T07:42:13.723Z,22.63
2022-08-07T07:43:27.735Z,22.78
2022-08-07T07:44:49.676Z,22.78
2022-08-07T07:46:36.560Z,23.02
2022-08-07T07:47:51.779Z,23.16
2022-08-07T07:48:45.628Z,23.33
2022-08-07T07:50:34.582Z,23.45
2022-08-07T07:51:15.539Z,23.44
2022-08-07T07:52:24.319Z,23.53
2022-08-07T07:53:28.927Z,23.53
2022-08-07T07:54:37.899Z,23.72
2022-08-07T07:55:45.582Z,23.71
2022-08-07T07:56:59.977Z,23.68
2022-08-07T07:58:06.131Z,23.95
2022-08-07T07:59:12.439Z,23.98
2022-08-07T08:00:29.869Z,24.05
2022-08-07T08:02:02.666Z,24.15
2022-08-07T08:03:16.528Z,24.12
2022-08-07T08:04:25.528Z,24.18
2022-08-07T08:05:42.759Z,24.27
2022-08-07T08:06:53.513Z,24.21
2022-08-07T08:08:00.675Z,24.34
2022-08-07T08:09:08.229Z,24.40
2022-08-07T08:10:35.753Z,24.50
2022-08-07T08:11:59.677Z,24.55
2022-08-07T08:13:03.075Z,24.15
2022-08-07T08:14:05.966Z,24.24
2022-08-07T08:15:09.969Z,24.46
2022-08-07T08:16:24.987Z,24.36
2022-08-07T08:18:17.665Z,24.25
2022-08-07T08:18:55.940Z,24.35
2022-08-07T08:20:19.385Z,24.29
2022-08-07T08:21:55.399Z,24.63
2022-08-07T08:23:28.130Z,24.73
2022-08-07T08:25:18.744Z,24.61
2022-08-07T08:26:43.490Z,24.64
2022-08-07T08:28:01.866Z,24.35
2022-08-07T08:29:08.474Z,24.42
2022-08-07T08:30:17.532Z,24.67
2022-08-07T08:31:59.345Z,24.73
2022-08-07T08:32:54.574Z,24.69
2022-08-07T08:34:01.924Z,24.65
2022-08-07T08:35:09.928Z,24.95
2022-08-07T08:36:13.657Z,24.79
2022-08-07T08:38:01.362Z,24.85
2022-08-07T08:38:49.761Z,25.11
2022-08-07T08:39:58.665Z,25.15
2022-08-07T08:41:11.898Z,25.19
2022-08-07T08:42:37.222Z,25.33
2022-08-07T08:43:59.500Z,25.26
2022-08-07T08:45:41.494Z,25.15
2022-08-07T08:47:03.138Z,25.37
2022-08-07T08:48:32.520Z,25.58
2022-08-07T08:49:46.462Z,25.54
2022-08-07T08:51:14.532Z,25.46
2022-08-07T08:52:53.688Z,25.37
2022-08-07T08:54:19.244Z,25.71
2022-08-07T08:55:53.902Z,25.92
2022-08-07T08:57:07.443Z,26.13
2022-08-07T08:58:28.575Z,26.33
2022-08-07T09:00:00.081Z,26.46
2022-08-07T09:01:19.429Z,26.71
2022-08-07T09:02:43.892Z,27.09
2022-08-07T09:04:16.667Z,27.26
2022-08-07T09:05:52.954Z,27.61
2022-08-07T09:07:23.172Z,27.75
2022-08-07T09:08:48.071Z,27.79
2022-08-07T09:10:36.411Z,28.13
2022-08-07T09:11:53.350Z,28.31
2022-08-07T09:13:37.565Z,28.76
2022-08-07T09:16:22.086Z,28.66
2022-08-07T09:16:57.775Z,28.96
2022-08-07T09:18:22.689Z,28.87
2022-08-07T09:19:53.337Z,29.14
2022-08-07T09:21:34.185Z,28.69
2022-08-07T09:24:32.668Z,28.89
2022-08-07T09:24:33.365Z,28.69
2022-08-07T09:25:56.573Z,28.79
2022-08-07T09:27:13.368Z,29.65
2022-08-07T09:30:05.360Z,29.85
2022-08-07T09:30:08.693Z,29.90
2022-08-07T09:31:48.676Z,29.71
2022-08-07T09:33:05.247Z,30.00
2022-08-07T09:34:27.223Z,30.58
2022-08-07T09:36:05.385Z,30.85
2022-08-07T09:37:48.482Z,30.61
2022-08-07T09:39:52.474Z,29.82
2022-08-07T09:41:06.879Z,29.95
2022-08-07T09:42:39.282Z,29.90
2022-08-07T09:44:05.853Z,30.10
2022-08-07T09:47:25.942Z,29.49
2022-08-07T09:47:51.179Z,29.44
2022-08-07T09:50:02.196Z,29.59
2022-08-07T09:50:39.870Z,28.94
2022-08-07T09:52:33.868Z,28.99
2022-08-07T09:53:55.167Z,28.91
2022-08-07T09:55:17.066Z,28.52
2022-08-07T09:57:05.454Z,27.95
2022-08-07T09:58:32.256Z,27.93
2022-08-07T10:00:03.908Z,28.29
2022-08-07T10:01:50.418Z,28.17
2022-08-07T10:04:06.621Z,27.96
2022-08-07T10:04:39.542Z,27.78
2022-08-07T10:06:38.126Z,27.87
2022-08-07T10:07:54.979Z,28.11
2022-08-07T10:09:15.353Z,28.20
2022-08-07T10:11:07.610Z,28.12
2022-08-07T10:12:39.836Z,28.55
2022-08-07T10:14:03.929Z,29.33
2022-08-07T10:15:20.095Z,29.36
2022-08-07T10:16:59.523Z,29.58
2022-08-07T10:18:41.056Z,29.59
2022-08-07T10:19:55.708Z,29.99
2022-08-07T10:21:50.549Z,30.36
2022-08-07T10:22:57.414Z,30.75
2022-08-07T10:24:25.342Z,30.51
2022-08-07T10:25:44.702Z,30.15
2022-08-07T10:27:24.635Z,30.14
2022-08-07T10:28:51.746Z,30.05
2022-08-07T10:29:58.878Z,30.53
2022-08-07T10:31:38.830Z,30.56
2022-08-07T10:33:14.898Z,30.61
2022-08-07T10:34:31.750Z,30.73
2022-08-07T10:36:05.563Z,30.47
2022-08-07T10:38:20.983Z,30.75
2022-08-07T10:40:02.908Z,30.50
2022-08-07T10:41:46.915Z,31.15
2022-08-07T10:43:04.596Z,30.98
2022-08-07T10:44:45.502Z,31.00
2022-08-07T10:45:57.314Z,31.22
2022-08-07T10:47:11.751Z,30.94
2022-08-07T10:48:41.780Z,31.19
2022-08-07T10:50:19.446Z,31.06
2022-08-07T10:52:01.545Z,31.86
2022-08-07T10:53:28.661Z,31.72
2022-08-07T10:55:26.845Z,32.35
2022-08-07T10:56:43.572Z,32.99
2022-08-07T10:58:12.333Z,32.54
2022-08-07T10:59:37.025Z,32.22
2022-08-07T11:01:35.624Z,32.14
2022-08-07T11:03:04.205Z,31.92
2022-08-07T11:04:31.880Z,31.57
2022-08-07T11:05:51.006Z,30.58
2022-08-07T11:07:03.232Z,30.37
2022-08-07T11:08:21.251Z,29.69
2022-08-07T11:10:09.593Z,29.64
2022-08-07T11:11:08.184Z,29.89
2022-08-07T11:12:31.273Z,30.11
2022-08-07T11:14:45.969Z,29.84
2022-08-07T11:15:18.153Z,29.94
2022-08-07T11:16:30.547Z,29.99
2022-08-07T11:17:45.825Z,29.91
2022-08-07T11:18:51.212Z,29.64
2022-08-07T11:20:07.541Z,29.28
2022-08-07T11:21:33.600Z,29.65
2022-08-07T11:23:04.506Z,29.40
2022-08-07T11:24:22.783Z,29.40
2022-08-07T11:25:50.000Z,29.57
2022-08-07T11:27:02.199Z,30.42
2022-08-07T11:28:15.294Z,30.05
2022-08-07T11:29:42.152Z,30.41
2022-08-07T11:31:02.268Z,30.49
2022-08-07T11:32:15.358Z,30.19
2022-08-07T11:33:59.267Z,30.85
2022-08-07T11:35:10.214Z,31.39
2022-08-07T11:36:36.063Z,31.50
2022-08-07T11:38:10.149Z,32.32
2022-08-07T11:39:39.776Z,32.34
2022-08-07T11:41:18.181Z,32.66
2022-08-07T11:42:51.066Z,32.21
2022-08-07T11:44:18.743Z,32.10
2022-08-07T11:45:58.956Z,32.50
2022-08-07T11:47:39.139Z,32.75
2022-08-07T11:49:50.090Z,32.80
2022-08-07T11:51:04.013Z,32.77
2022-08-07T11:52:37.785Z,32.39
2022-08-07T11:54:01.096Z,32.01
2022-08-07T11:56:19.809Z,32.46
2022-08-07T11:57:16.086Z,32.73
2022-08-07T11:58:43.646Z,32.81
2022-08-07T12:00:19.281Z,32.72
2022-08-07T12:01:58.708Z,33.13
2022-08-07T12:03:42.313Z,32.95
2022-08-07T12:05:15.225Z,31.64
2022-08-07T12:06:57.218Z,31.50
2022-08-07T12:08:25.924Z,31.63
2022-08-07T12:09:39.719Z,32.12
2022-08-07T12:11:20.500Z,32.29
2022-08-07T12:12:35.905Z,32.52
2022-08-07T12:13:47.566Z,32.67
2022-08-07T12:15:17.297Z,32.81
2022-08-07T12:16:38.101Z,33.28
2022-08-07T12:17:58.822Z,32.66
2022-08-07T12:19:21.439Z,32.68
2022-08-07T12:20:38.200Z,33.31
2022-08-07T12:22:39.179Z,33.93
2022-08-07T12:24:06.828Z,33.87
2022-08-07T12:26:21.430Z,33.71
2022-08-07T12:27:28.137Z,33.93
2022-08-07T12:29:01.967Z,34.26
2022-08-07T12:30:09.095Z,34.32
2022-08-07T12:32:02.054Z,33.89
2022-08-07T12:33:28.234Z,34.15
2022-08-07T12:34:37.110Z,34.02
2022-08-07T12:35:41.427Z,33.63
2022-08-07T12:36:53.637Z,33.38
2022-08-07T12:38:09.467Z,33.22
2022-08-07T12:39:43.217Z,33.47
2022-08-07T12:40:50.382Z,33.12
2022-08-07T12:41:54.805Z,32.74
2022-08-07T12:43:00.039Z,33.00
2022-08-07T12:44:10.418Z,33.39
2022-08-07T12:45:27.047Z,33.38
2022-08-07T12:46:46.271Z,33.12
2022-08-07T12:48:27.943Z,32.75
2022-08-07T12:50:05.226Z,32.82
2022-08-07T12:51:51.037Z,32.19
2022-08-07T12:53:21.928Z,32.12
2022-08-07T12:55:09.739Z,31.89
2022-08-07T12:56:33.681Z,32.34
2022-08-07T12:58:01.119Z,32.39
2022-08-07T12:59:08.356Z,32.01
2022-08-07T13:00:16.356Z,31.94
2022-08-07T13:01:55.862Z,31.89
2022-08-07T13:04:02.623Z,31.60
2022-08-07T13:06:04.665Z,31.33
2022-08-07T13:07:01.026Z,31.66
2022-08-07T13:08:28.119Z,31.52
2022-08-07T13:10:28.600Z,31.45
2022-08-07T13:12:02.268Z,31.61
2022-08-07T13:13:13.402Z,31.73
2022-08-07T13:15:14.334Z,31.41
2022-08-07T13:17:01.249Z,31.44
2022-08-07T13:18:29.996Z,31.59
2022-08-07T13:19:59.690Z,31.35
2022-08-07T13:21:57.394Z,30.73
2022-08-07T13:24:04.070Z,30.89
2022-08-07T13:25:06.885Z,30.87
2022-08-07T13:26:30.588Z,30.95
2022-08-07T13:28:12.686Z,31.29
2022-08-07T13:29:17.126Z,31.02
2022-08-07T13:30:40.966Z,31.20
2022-08-07T13:31:57.895Z,31.18
2022-08-07T13:34:31.225Z,30.89
2022-08-07T13:34:58.485Z,31.10
2022-08-07T13:36:08.613Z,31.20
2022-08-07T13:37:58.799Z,31.79
2022-08-07T13:39:13.120Z,32.27
2022-08-07T13:40:42.831Z,32.67
2022-08-07T13:41:51.414Z,32.64
2022-08-07T13:43:12.353Z,32.94
2022-08-07T13:44:25.950Z,33.17
2022-08-07T13:46:12.830Z,33.29
2022-08-07T13:46:59.655Z,33.35
2022-08-07T13:48:08.691Z,33.22
2022-08-07T13:50:32.719Z,33.30
2022-08-07T13:50:45.052Z,33.57
2022-08-07T13:52:22.878Z,33.35
2022-08-07T13:53:35.935Z,33.06
2022-08-07T13:54:57.597Z,33.26
2022-08-07T13:56:00.720Z,33.14
2022-08-07T13:57:14.690Z,33.25
2022-08-07T13:58:54.207Z,32.89
2022-08-07T14:00:02.493Z,32.32
2022-08-07T14:01:15.790Z,32.36
2022-08-07T14:02:39.547Z,32.51
2022-08-07T14:04:06.857Z,32.89
2022-08-07T14:05:15.684Z,33.05
2022-08-07T14:06:19.734Z,32.73
2022-08-07T14:07:33.575Z,33.09
2022-08-07T14:08:45.471Z,33.10
2022-08-07T14:10:12.340Z,32.98
2022-08-07T14:11:24.030Z,33.21
2022-08-07T14:12:55.813Z,33.15
2022-08-07T14:14:07.740Z,33.40
2022-08-07T14:15:36.165Z,33.28
2022-08-07T14:16:49.866Z,33.06
2022-08-07T14:18:23.766Z,32.72
2022-08-07T14:20:40.898Z,32.47
2022-08-07T14:21:08.301Z,32.32
2022-08-07T14:22:34.070Z,32.54
2022-08-07T14:24:01.131Z,32.29
2022-08-07T14:25:16.705Z,32.18
2022-08-07T14:26:30.115Z,32.26
2022-08-07T14:28:11.079Z,32.08
2022-08-07T14:30:09.527Z,31.88
2022-08-07T14:30:34.160Z,31.58
2022-08-07T14:31:42.843Z,31.34
2022-08-07T14:32:58.685Z,31.20
2022-08-07T14:34:03.205Z,31.11
2022-08-07T14:35:16.419Z,31.25
2022-08-07T14:36:41.051Z,31.10
2022-08-07T14:38:05.821Z,31.41
2022-08-07T14:39:12.545Z,31.66
2022-08-07T14:40:35.733Z,32.05
2022-08-07T14:42:19.985Z,32.03
2022-08-07T14:43:55.340Z,32.07
2022-08-07T14:44:53.048Z,32.05
2022-08-07T14:45:58.736Z,31.70
2022-08-07T14:47:08.733Z,31.80
2022-08-07T14:48:27.262Z,31.99
2022-08-07T14:49:57.114Z,31.89
2022-08-07T14:51:00.130Z,32.05
2022-08-07T14:52:10.312Z,31.92
2022-08-07T14:53:14.353Z,31.83
2022-08-07T14:54:34.503Z,31.69
2022-08-07T14:55:55.916Z,31.47
2022-08-07T14:57:02.154Z,31.59
2022-08-07T14:58:06.596Z,31.91
2022-08-07T15:00:55.627Z,32.15
2022-08-07T15:02:31.787Z,32.09
2022-08-07T15:03:51.579Z,32.21
2022-08-07T15:05:01.807Z,32.28
2022-08-07T15:06:05.377Z,32.51
2022-08-07T15:07:23.992Z,32.45
2022-08-07T15:08:54.762Z,32.20
2022-08-07T15:10:02.028Z,32.05
2022-08-07T15:11:14.994Z,32.01
2022-08-07T15:12:30.563Z,32.01
2022-08-07T15:13:38.149Z,32.10
2022-08-07T15:14:57.789Z,32.20
2022-08-07T15:16:10.917Z,32.05
2022-08-07T15:17:18.248Z,32.01
2022-08-07T15:18:33.755Z,31.95
2022-08-07T15:20:30.587Z,32.06
2022-08-07T15:21:59.617Z,32.04
2022-08-07T15:23:16.959Z,32.23
2022-08-07T15:25:13.162Z,32.09
2022-08-07T15:25:57.040Z,31.81
2022-08-07T15:27:05.734Z,31.83
2022-08-07T15:28:35.239Z,31.94
2022-08-07T15:30:09.323Z,31.21
2022-08-07T15:31:10.790Z,31.65
2022-08-07T15:32:15.628Z,31.87
2022-08-07T15:33:42.694Z,32.06
2022-08-07T15:34:56.950Z,32.00
2022-08-07T15:36:05.063Z,32.15
2022-08-07T15:37:10.085Z,32.08
2022-08-07T15:38:30.342Z,31.94
2022-08-07T15:39:58.298Z,32.14
2022-08-07T15:41:23.771Z,32.12
2022-08-07T15:44:04.983Z,31.65
2022-08-07T15:45:20.150Z,31.91
2022-08-07T15:48:02.045Z,31.54
2022-08-07T15:49:14.415Z,31.42
2022-08-07T15:51:01.638Z,31.34
2022-08-07T15:53:09.236Z,31.56
2022-08-07T15:54:17.337Z,31.41
2022-08-07T15:55:20.991Z,31.21
2022-08-07T15:56:37.146Z,31.33
2022-08-07T15:57:51.523Z,31.18
2022-08-07T15:58:59.338Z,30.96
2022-08-07T16:00:07.152Z,30.87
2022-08-07T16:01:20.600Z,30.96
2022-08-07T16:02:28.120Z,31.03
2022-08-07T16:03:47.468Z,30.90
2022-08-07T16:05:04.564Z,30.89
2022-08-07T16:06:30.686Z,30.89
2022-08-07T16:08:31.423Z,30.62
2022-08-07T16:09:22.757Z,30.63
2022-08-07T16:10:28.294Z,30.51
2022-08-07T16:11:55.290Z,30.31
2022-08-07T16:13:57.838Z,30.58
2022-08-07T16:14:54.897Z,30.64
2022-08-07T16:16:47.947Z,30.64
2022-08-07T16:18:49.823Z,30.63
2022-08-07T16:20:33.318Z,30.35
2022-08-07T16:22:05.837Z,30.38
2022-08-07T16:23:53.518Z,30.20
2022-08-07T16:25:03.135Z,30.21
2022-08-07T16:26:31.273Z,30.15
2022-08-07T16:27:41.929Z,30.00
2022-08-07T16:30:07.140Z,30.00
2022-08-07T16:30:34.757Z,30.02
2022-08-07T16:31:58.157Z,29.92
2022-08-07T16:34:01.436Z,29.80
2022-08-07T16:34:48.806Z,29.79
2022-08-07T16:36:19.697Z,29.75
2022-08-07T16:38:07.480Z,29.74
2022-08-07T16:39:40.255Z,29.69
2022-08-07T16:41:10.147Z,29.79
2022-08-07T16:42:38.843Z,29.91
2022-08-07T16:44:04.285Z,29.94
2022-08-07T16:47:16.568Z,29.82
2022-08-07T16:49:04.389Z,29.69
2022-08-07T16:51:21.877Z,29.45
2022-08-07T16:52:51.553Z,29.64
2022-08-07T16:54:03.134Z,29.64
2022-08-07T16:55:13.230Z,29.57
2022-08-07T16:56:39.259Z,29.46
2022-08-07T16:58:15.828Z,29.45
2022-08-07T16:59:48.962Z,29.36